Time;durP1;ratioP1;P1;durP2;ratioP2;P2;SDS_P1;SDS_P2;PMS_P1;PMS_P2;Temp;Humidity;BMP_temperature;BMP_pressure;BME280_temperature;BME280_humidity;BME280_pressure;Samples;Min_cycle;Max_cycle;Signal;HPM_P1;HPM_P2
2023/06/20 00:00:06;;;;;;;11.07;7.10;;;;;;;18.47;70.02;97040.63;5030335;28;20199;-74
2023/06/20 00:02:33;;;;;;;8.93;6.80;;;;;;;18.51;70.06;97032.41;5029107;28;20800;-73
2023/06/20 00:05:02;;;;;;;10.93;7.63;;;;;;;18.29;70.39;97039.38;5030146;28;20204;-74
2023/06/20 00:07:32;;;;;;;10.13;7.40;;;;;;;17.90;71.72;97040.63;5028522;28;20275;-73
2023/06/20 00:09:59;;;;;;;10.47;6.73;;;;;;;17.99;71.74;97028.63;5030276;28;20207;-73
2023/06/20 00:12:30;;;;;;;11.50;7.10;;;;;;;17.96;70.77;97024.44;5028985;28;20303;-74
2023/06/20 00:14:57;;;;;;;10.27;6.43;;;;;;;18.18;69.79;97023.63;5029792;28;20293;-73
2023/06/20 00:17:25;;;;;;;13.20;6.93;;;;;;;18.20;68.83;97021.72;5030166;28;20197;-73
2023/06/20 00:19:52;;;;;;;8.90;6.13;;;;;;;18.20;68.61;97026.97;5028734;28;20204;-73
2023/06/20 00:22:19;;;;;;;7.80;5.63;;;;;;;18.24;68.20;97025.78;5030049;28;20292;-73
2023/06/20 00:24:46;;;;;;;7.20;5.37;;;;;;;17.94;67.84;96988.81;5028554;28;20704;-76
2023/06/20 00:27:13;;;;;;;8.60;6.47;;;;;;;18.29;67.62;97021.03;5030034;28;20678;-73
2023/06/20 00:29:41;;;;;;;14.43;6.90;;;;;;;18.06;68.28;96999.19;5028341;28;20592;-73
2023/06/20 00:32:08;;;;;;;9.47;7.27;;;;;;;18.25;68.53;97014.34;5010763;28;20204;-74
2023/06/20 00:34:35;;;;;;;9.53;6.87;;;;;;;18.25;67.88;97009.94;5011674;28;20216;-73
2023/06/20 00:37:41;;;;;;;7.83;6.73;;;;;;;18.50;67.25;96990.56;5010918;28;20247;-74
2023/06/20 00:41:02;;;;;;;12.00;6.63;;;;;;;18.93;65.80;96996.72;5028744;28;20198;-73
2023/06/20 00:44:25;;;;;;;8.73;6.53;;;;;;;19.16;65.45;96994.88;5029199;28;20584;-74
2023/06/20 00:47:45;;;;;;;8.20;6.77;;;;;;;19.25;65.85;97005.47;5009776;28;20248;-73
2023/06/20 00:51:06;;;;;;;8.70;6.77;;;;;;;19.28;65.31;97009.63;5026781;28;20194;-73
2023/06/20 00:54:27;;;;;;;10.77;6.47;;;;;;;19.22;65.89;97005.72;5028167;28;20229;-76
2023/06/20 00:57:48;;;;;;;12.10;7.10;;;;;;;19.30;65.75;97005.94;5028275;28;20206;-75
2023/06/20 01:01:10;;;;;;;10.80;7.13;;;;;;;19.28;65.81;97007.84;5027879;28;20202;-74
2023/06/20 01:04:31;;;;;;;16.57;7.10;;;;;;;19.20;65.58;96994.50;4992627;28;20209;-73
2023/06/20 01:07:58;;;;;;;8.90;6.67;;;;;;;18.84;67.24;97002.69;5027079;28;20299;-73
2023/06/20 01:11:13;;;;;;;10.47;7.30;;;;;;;17.88;70.57;97006.69;5010593;28;20584;-73
2023/06/20 01:14:45;;;;;;;14.67;7.80;;;;;;;17.81;71.19;97002.00;5010761;28;20228;-72
2023/06/20 01:17:52;;;;;;;11.47;7.50;;;;;;;17.71;71.92;97004.47;5026742;28;20254;-73
2023/06/20 01:21:13;;;;;;;12.33;9.67;;;;;;;17.81;71.59;97005.47;5026330;28;20223;-73
2023/06/20 01:24:33;;;;;;;17.43;9.93;;;;;;;17.91;70.92;96989.88;5010224;28;20197;-73
2023/06/20 01:27:56;;;;;;;18.77;11.60;;;;;;;17.89;71.02;97003.09;5027894;28;20667;-74
2023/06/20 01:30:53;;;;;;;17.67;12.03;;;;;;;18.01;71.08;97006.56;5009661;28;20251;-73
2023/06/20 01:34:14;;;;;;;28.67;15.67;;;;;;;17.86;71.60;96998.09;5026112;28;20205;-73
2023/06/20 01:37:37;;;;;;;27.23;16.60;;;;;;;17.71;71.77;97003.63;5027577;28;20242;-73
2023/06/20 01:40:58;;;;;;;30.00;16.93;;;;;;;17.36;73.65;97003.59;5027656;28;20204;-73
2023/06/20 01:44:19;;;;;;;26.00;14.30;;;;;;;16.98;75.33;96998.50;5026814;28;20204;-73
2023/06/20 01:47:39;;;;;;;28.20;14.43;;;;;;;17.04;75.25;97002.50;5025947;28;20721;-72
2023/06/20 01:51:00;;;;;;;21.00;12.83;;;;;;;17.12;74.65;97004.53;5026764;28;20287;-74
2023/06/20 01:54:20;;;;;;;22.17;12.10;;;;;;;16.85;75.84;96996.91;5027328;28;20204;-76
2023/06/20 01:57:42;;;;;;;20.13;9.87;;;;;;;16.89;75.61;96982.66;5027313;28;20225;-76
2023/06/20 02:01:03;;;;;;;14.53;9.47;;;;;;;16.95;75.56;96992.69;5025945;28;20702;-74
2023/06/20 02:04:24;;;;;;;12.30;8.37;;;;;;;16.96;75.68;96983.91;5025750;28;20285;-76
2023/06/20 02:07:45;;;;;;;10.83;7.63;;;;;;;17.22;74.86;97003.78;5009448;28;20229;-77
2023/06/20 02:11:07;;;;;;;11.93;7.40;;;;;;;17.11;74.25;97006.31;5027193;28;20713;-77
2023/06/20 02:14:28;;;;;;;14.10;7.90;;;;;;;17.17;74.12;97008.50;5008681;28;20670;-76
2023/06/20 02:17:48;;;;;;;9.67;7.47;;;;;;;17.03;74.48;97003.41;5007625;28;20553;-76
2023/06/20 02:21:09;;;;;;;8.30;7.03;;;;;;;17.08;73.80;97003.94;5026302;28;20195;-75
2023/06/20 02:24:31;;;;;;;8.63;6.87;;;;;;;17.18;73.02;97019.81;5026809;28;20745;-75
2023/06/20 02:27:52;;;;;;;8.30;6.63;;;;;;;17.36;72.27;97019.31;5026847;28;20228;-76
2023/06/20 02:31:12;;;;;;;9.60;7.30;;;;;;;17.57;71.76;97023.00;5018912;28;20207;-77
2023/06/20 02:34:33;;;;;;;10.60;7.40;;;;;;;17.63;70.78;97011.22;4987970;28;20234;-73
2023/06/20 02:37:54;;;;;;;8.43;6.37;;;;;;;17.66;71.07;97014.44;5006894;28;20253;-76
2023/06/20 02:41:14;;;;;;;7.43;6.40;;;;;;;17.84;70.21;97026.19;5006784;28;20200;-76
2023/06/20 02:44:36;;;;;;;11.50;6.97;;;;;;;18.08;70.13;97020.03;4988643;28;20207;-74
2023/06/20 02:47:49;;;;;;;8.57;6.83;;;;;;;17.83;70.27;97018.44;5005185;28;20313;-73
2023/06/20 02:50:55;;;;;;;11.33;7.43;;;;;;;18.07;69.78;97039.34;5005936;28;20204;-74
2023/06/20 02:54:27;;;;;;;14.33;8.37;;;;;;;18.13;69.46;97037.09;5007750;28;20286;-75
2023/06/20 02:57:48;;;;;;;11.13;7.57;;;;;;;17.97;69.99;97039.19;4995129;28;20208;-74
2023/06/20 03:01:09;;;;;;;12.70;7.70;;;;;;;18.01;69.94;97047.69;4994145;28;20287;-73
2023/06/20 03:04:33;;;;;;;10.27;7.27;;;;;;;18.07;69.77;97037.56;5012296;28;20199;-75
2023/06/20 03:07:55;;;;;;;14.47;8.97;;;;;;;18.20;69.70;97043.53;4995996;28;20591;-75
2023/06/20 03:11:18;;;;;;;11.97;8.37;;;;;;;18.21;69.79;97042.59;5013504;28;20204;-74
2023/06/20 03:14:40;;;;;;;15.03;9.13;;;;;;;18.24;69.29;97052.84;5011789;28;20297;-73
2023/06/20 03:18:01;;;;;;;14.13;9.93;;;;;;;17.91;70.49;97051.94;5006144;28;20217;-76
2023/06/20 03:21:22;;;;;;;19.47;10.37;;;;;;;17.80;71.13;97058.78;5031751;28;20578;-75
2023/06/20 03:24:47;;;;;;;16.50;11.33;;;;;;;17.99;70.58;97060.88;5015395;28;20210;-74
2023/06/20 03:28:12;;;;;;;17.33;10.20;;;;;;;17.99;70.61;97054.81;5015950;28;20750;-74
2023/06/20 03:31:36;;;;;;;19.07;10.77;;;;;;;17.77;71.31;97051.16;5008829;28;20645;-75
2023/06/20 03:34:56;;;;;;;15.80;10.60;;;;;;;17.73;70.85;97020.91;5029228;28;20230;-74
2023/06/20 03:38:17;;;;;;;16.87;10.70;;;;;;;17.64;71.89;97054.81;4998836;28;20286;-75
2023/06/20 03:41:38;;;;;;;14.87;9.47;;;;;;;17.61;72.58;97053.25;5015103;28;20200;-74
2023/06/20 03:45:01;;;;;;;24.10;10.77;;;;;;;18.07;71.13;97057.69;4997552;28;20241;-75
2023/06/20 03:48:23;;;;;;;16.33;10.10;;;;;;;18.60;69.21;97067.59;4993666;28;20231;-73
2023/06/20 03:51:46;;;;;;;15.70;9.70;;;;;;;18.55;69.30;97074.97;4995420;28;20205;-73
2023/06/20 03:55:07;;;;;;;12.47;8.83;;;;;;;18.81;68.41;97067.72;5011663;28;20205;-73
2023/06/20 03:58:28;;;;;;;12.83;9.40;;;;;;;18.62;69.45;97073.53;4994794;28;20227;-74
2023/06/20 04:01:50;;;;;;;13.40;9.03;;;;;;;18.56;69.39;97056.50;4993392;28;20208;-75
2023/06/20 04:05:10;;;;;;;13.73;9.43;;;;;;;18.89;68.58;97073.19;5012324;28;20205;-75
2023/06/20 04:08:31;;;;;;;13.97;8.37;;;;;;;19.53;67.57;97069.78;5010099;28;20265;-75
2023/06/20 04:11:52;;;;;;;11.97;9.03;;;;;;;20.65;63.93;97070.91;5009609;28;20202;-76
2023/06/20 04:15:13;;;;;;;13.17;8.30;;;;;;;20.94;63.65;97056.88;5017025;28;20201;-75
2023/06/20 04:18:33;;;;;;;10.97;5.93;;;;;;;21.48;61.80;97068.81;5008700;28;20627;-74
2023/06/20 04:21:54;;;;;;;7.80;6.33;;;;;;;21.96;60.29;97080.28;5009145;28;20579;-73
2023/06/20 04:25:16;;;;;;;10.80;5.93;;;;;;;22.07;59.63;97087.22;4991640;28;20624;-74
2023/06/20 04:28:36;;;;;;;10.43;5.97;;;;;;;21.82;60.79;97075.44;4990769;28;20243;-74
2023/06/20 04:31:17;;;;;;;7.13;5.77;;;;;;;22.15;59.07;97069.72;5007433;28;20803;-74
2023/06/20 04:33:44;;;;;;;6.93;6.00;;;;;;;22.34;58.53;97085.50;5009819;28;20219;-75
2023/06/20 04:36:13;;;;;;;6.93;5.60;;;;;;;22.18;58.99;97085.25;4991077;28;20209;-77
2023/06/20 04:38:43;;;;;;;7.17;5.80;;;;;;;22.45;58.87;97082.72;4991964;28;20214;-74
2023/06/20 04:41:11;;;;;;;10.43;6.90;;;;;;;22.52;58.63;97081.16;4998502;28;20204;-73
2023/06/20 04:43:41;;;;;;;7.23;5.47;;;;;;;22.51;57.46;97074.25;5028099;28;20259;-76
2023/06/20 04:46:08;;;;;;;9.23;5.67;;;;;;;22.89;57.75;97096.25;5011770;28;20488;-76
2023/06/20 04:48:35;;;;;;;8.07;6.10;;;;;;;22.71;57.35;97082.16;5010311;28;20241;-76
2023/06/20 04:51:07;;;;;;;7.00;6.17;;;;;;;22.97;57.89;97091.94;5011398;28;20605;-76
2023/06/20 04:53:35;;;;;;;8.93;6.80;;;;;;;22.22;59.86;97073.44;5010140;28;20567;-76
2023/06/20 04:56:03;;;;;;;8.23;6.50;;;;;;;21.75;62.70;97098.84;5028821;28;20237;-75
2023/06/20 04:58:30;;;;;;;9.10;6.60;;;;;;;21.08;64.21;97059.16;5011023;28;20279;-74
2023/06/20 05:01:00;;;;;;;8.93;7.13;;;;;;;21.65;64.21;97102.44;5027102;28;20208;-76
2023/06/20 05:03:28;;;;;;;7.60;6.80;;;;;;;21.16;66.07;97102.44;5010638;28;20260;-76
2023/06/20 05:05:56;;;;;;;7.67;6.87;;;;;;;20.95;66.89;97105.94;5009212;28;20269;-75
2023/06/20 05:08:23;;;;;;;9.27;6.83;;;;;;;21.04;66.91;97104.34;5028673;28;21084;-78
2023/06/20 05:10:50;;;;;;;9.17;7.13;;;;;;;21.38;66.48;97110.13;5009176;28;20191;-76
2023/06/20 05:13:17;;;;;;;8.60;6.77;;;;;;;21.63;65.33;97107.00;5010721;28;20202;-77
2023/06/20 05:15:44;;;;;;;11.50;6.80;;;;;;;22.19;63.67;97113.34;5028418;28;20216;-78
2023/06/20 05:18:11;;;;;;;7.23;6.17;;;;;;;22.64;61.97;97105.66;5027125;28;20197;-77
2023/06/20 05:20:38;;;;;;;8.23;7.00;;;;;;;22.75;61.51;97091.44;5028744;28;20213;-78
2023/06/20 05:23:06;;;;;;;9.20;6.53;;;;;;;23.12;60.30;97100.22;5011902;28;20209;-77
2023/06/20 05:25:34;;;;;;;9.73;6.67;;;;;;;23.29;60.07;97112.63;5008768;28;20206;-77
2023/06/20 05:28:01;;;;;;;10.20;6.80;;;;;;;23.34;59.87;97113.91;5006799;28;20241;-77
2023/06/20 05:30:32;;;;;;;10.57;7.00;;;;;;;23.65;58.15;97119.72;5008331;28;20211;-77
2023/06/20 05:32:59;;;;;;;11.13;6.77;;;;;;;23.25;59.74;97113.91;5007859;28;20577;-75
2023/06/20 05:35:29;;;;;;;9.37;7.57;;;;;;;22.98;60.59;97108.63;5007339;28;20204;-78
2023/06/20 05:37:56;;;;;;;11.97;7.33;;;;;;;22.88;61.76;97108.63;5008376;28;20252;-75
2023/06/20 05:40:24;;;;;;;8.97;7.17;;;;;;;23.24;60.96;97099.88;5006824;28;20205;-73
2023/06/20 05:42:51;;;;;;;9.73;7.10;;;;;;;23.82;57.76;97100.38;4990656;28;20208;-74
2023/06/20 05:45:18;;;;;;;10.50;7.67;;;;;;;24.16;56.78;97092.63;5006263;28;20255;-74
2023/06/20 05:47:45;;;;;;;9.27;7.67;;;;;;;24.28;56.09;97072.06;5015786;28;20356;-77
2023/06/20 05:50:12;;;;;;;9.80;7.23;;;;;;;24.67;55.34;97097.13;5017721;28;20253;-75
2023/06/20 05:52:39;;;;;;;12.03;8.37;;;;;;;24.88;54.98;97101.13;5016194;28;20684;-76
2023/06/20 05:55:07;;;;;;;9.03;7.77;;;;;;;24.83;54.55;97103.41;5027707;28;20237;-78
2023/06/20 05:57:34;;;;;;;10.20;8.13;;;;;;;25.17;53.01;97106.06;5017521;28;20598;-78
2023/06/20 06:00:10;;;;;;;12.40;7.93;;;;;;;25.33;51.94;97111.44;5018322;28;20208;-78
2023/06/20 06:02:46;;;;;;;10.00;8.23;;;;;;;24.95;53.02;97114.59;5016201;28;20220;-77
2023/06/20 06:05:14;;;;;;;10.37;8.00;;;;;;;25.29;51.71;97104.81;5017795;28;20661;-77
2023/06/20 06:07:41;;;;;;;11.63;8.17;;;;;;;25.38;52.18;97098.56;5015189;28;20288;-77
2023/06/20 06:10:11;;;;;;;8.60;7.70;;;;;;;25.69;51.21;97110.28;5015377;28;20218;-76
2023/06/20 06:12:40;;;;;;;13.17;7.47;;;;;;;25.82;51.11;97107.97;5017988;28;20587;-76
2023/06/20 06:15:08;;;;;;;13.07;11.20;;;;;;;25.79;50.88;97103.03;5015271;28;20210;-78
2023/06/20 06:17:35;;;;;;;9.73;8.13;;;;;;;25.61;52.13;97102.31;5006925;28;20206;-79
2023/06/20 06:20:03;;;;;;;10.30;7.97;;;;;;;25.67;51.44;97087.56;5025915;28;20209;-76
2023/06/20 06:22:30;;;;;;;8.77;7.50;;;;;;;25.39;51.17;97102.84;5027714;28;20333;-78
2023/06/20 06:24:57;;;;;;;9.50;8.50;;;;;;;25.61;50.72;97083.75;5037673;28;20220;-76
2023/06/20 06:27:24;;;;;;;8.17;6.80;;;;;;;25.58;50.75;97046.91;5008239;28;20230;-78
2023/06/20 06:29:51;;;;;;;9.37;7.07;;;;;;;25.91;49.89;97073.50;5025198;28;20202;-76
2023/06/20 06:32:20;;;;;;;8.93;7.27;;;;;;;26.13;49.01;97070.25;5025687;28;20501;-77
2023/06/20 06:34:50;;;;;;;12.00;7.60;;;;;;;26.34;49.01;97075.88;5046690;28;20211;-78
2023/06/20 06:37:18;;;;;;;8.47;7.60;;;;;;;26.53;48.06;97057.78;5045377;28;20202;-77
2023/06/20 06:39:45;;;;;;;10.50;6.70;;;;;;;26.41;47.41;97075.06;5046692;28;20209;-77
2023/06/20 06:42:12;;;;;;;10.37;7.20;;;;;;;26.12;48.17;97071.22;5046087;28;20640;-78
2023/06/20 06:44:40;;;;;;;11.37;9.10;;;;;;;26.05;48.95;97068.38;5046020;28;20194;-77
2023/06/20 06:47:08;;;;;;;8.60;7.13;;;;;;;26.27;48.79;97080.22;5046477;28;20237;-79
2023/06/20 06:49:35;;;;;;;9.87;7.43;;;;;;;26.37;48.58;97089.66;5044756;28;20228;-77
2023/06/20 06:52:02;;;;;;;10.03;7.30;;;;;;;26.58;47.91;97078.53;5046501;28;20222;-78
2023/06/20 06:54:29;;;;;;;7.87;7.07;;;;;;;26.80;47.05;97088.47;5045039;28;20210;-76
2023/06/20 06:56:56;;;;;;;9.30;7.17;;;;;;;27.08;46.35;97084.41;5046863;28;20216;-77
2023/06/20 06:59:23;;;;;;;9.17;6.40;;;;;;;27.10;45.74;97042.53;5045415;28;20206;-78
2023/06/20 07:01:51;;;;;;;7.93;6.33;;;;;;;27.34;44.58;97079.72;5045654;28;20329;-76
2023/06/20 07:04:18;;;;;;;9.83;6.07;;;;;;;27.22;45.23;97067.72;5046664;28;20570;-79
2023/06/20 07:06:46;;;;;;;8.30;6.53;;;;;;;27.29;46.71;97079.34;5026940;28;20194;-77
2023/06/20 07:09:13;;;;;;;11.47;7.83;;;;;;;27.33;46.32;97082.47;5046453;28;20237;-79
2023/06/20 07:11:40;;;;;;;10.83;6.60;;;;;;;27.36;44.69;97058.25;5045274;28;20216;-77
2023/06/20 07:14:07;;;;;;;8.90;7.40;;;;;;;27.37;45.34;97070.53;5046968;28;20225;-78
2023/06/20 07:16:34;;;;;;;7.70;6.77;;;;;;;27.19;46.28;97070.75;5045132;28;20208;-76
2023/06/20 07:19:02;;;;;;;10.97;7.30;;;;;;;27.48;45.76;97061.34;5046287;28;20217;-75
2023/06/20 07:21:29;;;;;;;9.30;6.70;;;;;;;27.57;46.00;97065.63;5046045;28;20202;-76
2023/06/20 07:23:56;;;;;;;9.57;7.00;;;;;;;27.76;44.79;97081.16;5026859;28;20194;-77
2023/06/20 07:26:23;;;;;;;9.20;6.80;;;;;;;27.53;44.68;97056.34;5046068;28;20288;-78
2023/06/20 07:28:50;;;;;;;10.07;7.63;;;;;;;27.83;44.29;97074.09;5044719;28;20371;-77
2023/06/20 07:31:19;;;;;;;10.43;6.83;;;;;;;27.45;45.36;97061.69;5046397;28;20576;-78
2023/06/20 07:33:47;;;;;;;18.23;13.40;;;;;;;27.29;45.73;97036.78;5044697;28;20217;-78
2023/06/20 07:36:14;;;;;;;12.00;7.23;;;;;;;27.79;45.17;97075.47;5046175;28;20718;-76
2023/06/20 07:39:21;;;;;;;7.47;6.57;;;;;;;27.92;44.09;97091.69;5027371;28;20289;-78
2023/06/20 07:42:41;;;;;;;13.50;7.20;;;;;;;28.23;43.61;97076.53;5029230;28;20811;-77
2023/06/20 07:46:04;;;;;;;9.67;7.20;;;;;;;28.49;43.27;97090.28;5047818;28;20198;-77
2023/06/20 07:49:25;;;;;;;10.43;7.27;;;;;;;28.56;43.49;97080.59;5048623;28;20252;-75
2023/06/20 07:52:45;;;;;;;9.17;5.90;;;;;;;28.57;42.54;97074.25;5033533;28;20252;-76
2023/06/20 07:56:06;;;;;;;10.90;6.97;;;;;;;28.39;43.04;97081.72;5047773;28;20229;-78
2023/06/20 07:59:27;;;;;;;9.17;6.23;;;;;;;27.95;43.68;97070.03;5047215;28;20720;-78
2023/06/20 08:02:48;;;;;;;6.87;5.60;;;;;;;28.32;40.73;97091.41;5048591;28;20753;-75
2023/06/20 08:05:29;;;;;;;7.13;5.73;;;;;;;28.57;40.65;97092.06;5031058;28;20201;-74
2023/06/20 08:07:56;;;;;;;8.77;6.40;;;;;;;28.67;40.56;97088.16;5048459;28;20265;-76
2023/06/20 08:10:24;;;;;;;8.00;5.80;;;;;;;28.64;39.65;97072.53;5050083;28;20212;-79
2023/06/20 08:12:51;;;;;;;6.40;5.37;;;;;;;28.86;40.87;97097.47;5048374;28;20194;-76
2023/06/20 08:15:19;;;;;;;7.77;6.83;;;;;;;28.61;40.95;97096.88;5049627;28;20198;-76
2023/06/20 08:17:46;;;;;;;7.87;5.87;;;;;;;28.49;41.50;97084.97;5050033;28;20276;-76
2023/06/20 08:20:13;;;;;;;9.07;8.20;;;;;;;28.56;40.93;97087.75;5048905;28;20673;-77
2023/06/20 08:22:40;;;;;;;7.63;6.70;;;;;;;28.38;41.69;97071.25;5050854;28;20205;-78
2023/06/20 08:25:07;;;;;;;7.57;6.13;;;;;;;28.73;41.50;97086.59;5049359;28;20198;-77
2023/06/20 08:27:35;;;;;;;8.63;6.27;;;;;;;28.59;41.34;97082.88;5031562;28;20194;-77
2023/06/20 08:30:03;;;;;;;6.43;5.07;;;;;;;28.67;40.54;97081.97;5047848;28;20221;-78
2023/06/20 08:32:32;;;;;;;5.50;4.93;;;;;;;28.92;40.02;97086.06;5048935;28;20853;-78
2023/06/20 08:35:00;;;;;;;10.33;6.03;;;;;;;28.77;40.50;97086.03;5048930;28;20201;-78
2023/06/20 08:37:29;;;;;;;7.83;6.00;;;;;;;28.80;40.93;97087.53;5030443;28;20233;-77
2023/06/20 08:39:57;;;;;;;6.50;5.50;;;;;;;28.35;41.26;97063.59;5049146;28;20208;-78
2023/06/20 08:42:24;;;;;;;9.70;5.73;;;;;;;28.31;40.86;97079.13;5046711;28;20206;-77
2023/06/20 08:44:51;;;;;;;8.40;6.00;;;;;;;28.15;41.31;97082.72;5048710;28;20202;-74
2023/06/20 08:47:25;;;;;;;7.53;5.47;;;;;;;27.26;43.32;97079.72;5046558;28;20238;-74
2023/06/20 08:49:52;;;;;;;6.23;5.33;;;;;;;27.34;43.69;97089.50;5049138;28;20644;-76
2023/06/20 08:52:28;;;;;;;6.80;5.23;;;;;;;27.25;43.75;97075.38;5030002;28;20202;-76
2023/06/20 08:54:56;;;;;;;5.93;5.33;;;;;;;27.22;43.66;97091.66;5048103;28;20206;-74
2023/06/20 08:57:23;;;;;;;7.70;5.33;;;;;;;27.55;43.25;97076.44;5049675;28;20197;-74
2023/06/20 08:59:52;;;;;;;13.73;8.30;;;;;;;27.28;43.40;97056.44;5049529;28;20202;-74
2023/06/20 09:02:21;;;;;;;6.17;5.17;;;;;;;27.69;43.52;97085.50;5050820;28;20229;-77
2023/06/20 09:05:02;;;;;;;5.87;5.33;;;;;;;27.93;43.34;97074.69;5049330;28;20220;-77
2023/06/20 09:07:39;;;;;;;9.23;6.13;;;;;;;28.14;42.09;97083.75;5049802;28;20279;-78
2023/06/20 09:10:07;;;;;;;6.13;5.53;;;;;;;28.26;41.76;97070.81;5032339;28;20268;-78
2023/06/20 09:12:50;;;;;;;7.70;5.40;;;;;;;28.60;41.92;97084.56;5047813;28;20217;-77
2023/06/20 09:15:23;;;;;;;8.50;4.83;;;;;;;28.54;40.96;97089.75;5048705;28;20209;-78
2023/06/20 09:17:51;;;;;;;5.13;4.57;;;;;;;27.65;40.02;97031.81;5047183;28;20198;-78
2023/06/20 09:20:21;;;;;;;5.37;4.47;;;;;;;28.06;40.80;97072.31;5047744;28;20194;-76
2023/06/20 09:22:48;;;;;;;4.97;4.47;;;;;;;27.96;41.53;97067.25;5048043;28;20190;-76
2023/06/20 09:25:21;;;;;;;5.30;4.00;;;;;;;27.60;42.82;97084.72;5046859;28;20197;-76
2023/06/20 09:27:49;;;;;;;4.30;3.90;;;;;;;27.57;42.56;97074.44;5047776;28;20213;-74
2023/06/20 09:30:16;;;;;;;5.30;4.80;;;;;;;27.20;44.12;97090.19;5046611;28;20190;-76
2023/06/20 09:32:43;;;;;;;5.00;4.50;;;;;;;27.33;42.72;97087.81;5048145;28;20229;-79
2023/06/20 09:35:14;;;;;;;4.73;4.33;;;;;;;27.70;43.25;97081.84;5046470;28;20198;-78
2023/06/20 09:37:43;;;;;;;4.90;4.43;;;;;;;27.42;44.92;97075.34;5047689;28;20206;-75
2023/06/20 09:40:13;;;;;;;5.50;3.97;;;;;;;27.30;44.12;97070.38;5047972;28;20768;-78
2023/06/20 09:42:44;;;;;;;4.83;4.33;;;;;;;27.86;43.32;97057.78;5046383;28;20209;-76
2023/06/20 09:45:16;;;;;;;5.77;4.60;;;;;;;27.90;43.32;97080.41;5047880;28;20327;-77
2023/06/20 09:47:47;;;;;;;6.50;4.03;;;;;;;28.19;39.07;97088.53;5046074;28;20661;-76
2023/06/20 09:50:19;;;;;;;5.13;4.20;;;;;;;28.31;40.60;97076.47;5030248;28;20229;-75
2023/06/20 09:53:00;;;;;;;6.90;4.10;;;;;;;28.49;40.43;97079.63;5046848;28;20283;-76
2023/06/20 09:55:32;;;;;;;6.00;4.43;;;;;;;28.07;41.96;97071.31;5048085;28;20198;-79
2023/06/20 09:58:01;;;;;;;5.10;4.60;;;;;;;27.60;42.11;97070.56;5047622;28;20214;-77
2023/06/20 10:00:33;;;;;;;5.90;4.50;;;;;;;27.31;40.61;97088.00;5045974;28;20198;-76
2023/06/20 10:03:10;;;;;;;5.83;4.60;;;;;;;27.23;42.98;97087.19;5047027;28;20595;-75
2023/06/20 10:05:38;;;;;;;5.17;4.67;;;;;;;26.97;45.00;97090.13;5045658;28;20677;-77
2023/06/20 10:08:06;;;;;;;5.70;4.47;;;;;;;26.98;45.35;97074.97;5046663;28;20225;-77
2023/06/20 10:10:33;;;;;;;6.83;4.90;;;;;;;26.65;46.46;97087.47;5047039;28;20788;-77
2023/06/20 10:13:03;;;;;;;6.40;4.87;;;;;;;26.08;48.53;97064.59;5046005;28;20275;-76
2023/06/20 10:15:31;;;;;;;5.70;4.70;;;;;;;26.01;47.65;97069.69;5047220;28;20272;-77
2023/06/20 10:17:58;;;;;;;5.73;5.13;;;;;;;26.18;45.98;97044.00;5045428;28;20592;-76
2023/06/20 10:20:37;;;;;;;5.77;4.70;;;;;;;26.72;46.90;97061.91;5046852;28;20210;-77
2023/06/20 10:23:09;;;;;;;5.00;4.60;;;;;;;27.49;45.13;97055.03;5045947;28;20669;-76
2023/06/20 10:25:57;;;;;;;5.10;4.60;;;;;;;27.92;41.00;97049.94;5046130;28;20208;-74
2023/06/20 10:28:25;;;;;;;5.10;4.57;;;;;;;28.11;40.99;97044.13;5046938;28;20283;-78
2023/06/20 10:31:02;;;;;;;6.07;4.20;;;;;;;28.13;40.57;97047.44;5027377;28;20193;-76
2023/06/20 10:33:30;;;;;;;4.67;4.23;;;;;;;27.51;42.67;97029.91;5029129;28;20275;-75
2023/06/20 10:36:16;;;;;;;6.43;4.80;;;;;;;27.61;43.06;97056.28;5028014;28;20653;-77
2023/06/20 10:38:53;;;;;;;8.30;4.53;;;;;;;27.64;42.95;97067.41;5046019;28;20202;-77
2023/06/20 10:41:27;;;;;;;5.27;3.93;;;;;;;27.59;40.28;97074.25;5046635;28;20206;-77
2023/06/20 10:43:55;;;;;;;4.50;4.10;;;;;;;27.37;42.27;97071.38;5045271;28;20636;-75
2023/06/20 10:46:35;;;;;;;4.90;4.50;;;;;;;27.18;44.63;97066.41;5046709;28;20271;-74
2023/06/20 10:49:04;;;;;;;5.47;4.97;;;;;;;26.88;45.19;97071.69;5032505;28;20269;-74
2023/06/20 10:51:44;;;;;;;8.00;4.97;;;;;;;26.99;45.03;97082.78;5026439;28;20260;-75
2023/06/20 10:54:13;;;;;;;5.30;4.77;;;;;;;27.21;44.71;97079.38;5026754;28;20281;-76
2023/06/20 10:56:40;;;;;;;6.20;4.87;;;;;;;27.61;42.99;97082.91;5025050;28;20198;-74
2023/06/20 10:59:14;;;;;;;5.10;4.60;;;;;;;27.85;42.98;97096.06;5027229;28;20213;-76
2023/06/20 11:01:42;;;;;;;5.27;4.77;;;;;;;27.60;44.07;97110.50;5024071;28;20194;-78
2023/06/20 11:04:10;;;;;;;4.73;3.83;;;;;;;26.41;47.24;97104.28;5009015;28;20704;-75
2023/06/20 11:06:38;;;;;;;4.40;4.00;;;;;;;25.42;49.26;97107.03;5026297;28;20317;-78
2023/06/20 11:09:16;;;;;;;4.73;4.30;;;;;;;24.88;50.78;97052.59;5007988;28;20225;-78
2023/06/20 11:11:44;;;;;;;6.83;4.30;;;;;;;25.26;50.45;97105.13;5028238;28;20202;-82
2023/06/20 11:14:19;;;;;;;5.83;4.03;;;;;;;25.30;51.14;97098.53;5008122;28;20206;-78
2023/06/20 11:16:48;;;;;;;4.60;4.17;;;;;;;24.88;53.63;97113.53;5030837;28;20266;-76
2023/06/20 11:19:21;;;;;;;6.70;5.20;;;;;;;24.96;54.59;97103.81;5031344;28;20216;-81
2023/06/20 11:21:51;;;;;;;6.60;5.20;;;;;;;24.85;55.25;97106.72;5030756;28;20205;-81
2023/06/20 11:24:20;;;;;;;6.00;5.23;;;;;;;25.04;55.33;97103.00;4997143;28;20301;-79
2023/06/20 11:26:47;;;;;;;4.93;4.43;;;;;;;24.82;55.95;97095.63;5011231;28;20207;-82
2023/06/20 11:29:15;;;;;;;7.53;5.33;;;;;;;25.29;54.48;97096.00;4999494;28;20788;-77
2023/06/20 11:31:43;;;;;;;7.03;4.60;;;;;;;25.09;52.82;97090.13;5009532;28;20316;-77
2023/06/20 11:34:14;;;;;;;5.83;5.17;;;;;;;25.08;54.78;97120.25;4993569;28;20210;-76
2023/06/20 11:36:41;;;;;;;6.17;5.47;;;;;;;24.81;56.81;97109.88;5009428;28;20212;-78
2023/06/20 11:39:11;;;;;;;9.13;6.20;;;;;;;24.36;59.69;97119.78;5009995;28;20229;-80
2023/06/20 11:41:39;;;;;;;8.43;6.17;;;;;;;24.26;61.38;97156.88;4993190;28;20842;-73
2023/06/20 11:44:24;;;;;;;9.33;6.43;;;;;;;23.58;68.67;97171.50;5009315;28;20598;-77
2023/06/20 11:46:55;;;;;;;11.93;6.80;;;;;;;22.75;70.39;97186.50;5010638;28;20233;-76
2023/06/20 11:49:33;;;;;;;10.03;5.90;;;;;;;22.14;68.11;97181.50;5009553;28;20265;-79
2023/06/20 11:52:01;;;;;;;9.97;5.67;;;;;;;22.20;66.98;97164.25;5010116;28;20210;-73
2023/06/20 11:54:28;;;;;;;11.90;6.43;;;;;;;22.80;65.24;97152.56;5010525;28;20283;-75
2023/06/20 11:56:55;;;;;;;7.57;6.37;;;;;;;22.93;64.96;97158.38;5009286;28;20386;-78
2023/06/20 11:59:23;;;;;;;8.30;5.83;;;;;;;23.30;64.69;97143.38;5012823;28;20192;-77
2023/06/20 12:01:52;;;;;;;9.13;6.47;;;;;;;23.34;66.99;97113.06;5009368;28;20814;-82
2023/06/20 12:04:21;;;;;;;6.30;5.50;;;;;;;23.72;65.50;97117.31;5010916;28;20217;-83
2023/06/20 12:06:52;;;;;;;8.73;6.10;;;;;;;23.61;65.44;97120.16;5012473;28;20216;-81
2023/06/20 12:09:23;;;;;;;8.57;6.17;;;;;;;23.75;67.10;97141.63;5011307;28;20221;-75
2023/06/20 12:11:55;;;;;;;11.43;6.77;;;;;;;23.59;68.07;97124.75;5010002;28;20721;-74
2023/06/20 12:14:24;;;;;;;9.07;6.00;;;;;;;23.69;63.55;97151.97;5009180;28;20269;-79
2023/06/20 12:16:52;;;;;;;7.77;6.30;;;;;;;23.85;70.14;97145.03;5010351;28;20295;-77
2023/06/20 12:19:20;;;;;;;6.50;5.70;;;;;;;23.37;66.74;97131.25;5008381;28;20225;-77
2023/06/20 12:21:49;;;;;;;7.87;5.83;;;;;;;23.04;71.06;97139.75;4992558;28;20643;-76
2023/06/20 12:24:16;;;;;;;6.07;5.03;;;;;;;23.01;63.48;97110.94;5008922;28;20638;-77
2023/06/20 12:26:46;;;;;;;10.00;6.70;;;;;;;23.43;63.43;97114.84;5008076;28;20215;-79
2023/06/20 12:29:16;;;;;;;7.43;5.70;;;;;;;23.80;65.72;97085.66;4992226;28;20231;-78
2023/06/20 12:31:43;;;;;;;9.47;6.83;;;;;;;24.33;59.48;97101.53;4990529;28;20211;-80
2023/06/20 12:34:10;;;;;;;7.23;6.40;;;;;;;24.56;59.04;97108.00;5009882;28;20201;-79
2023/06/20 12:36:37;;;;;;;8.63;6.30;;;;;;;24.74;62.21;97106.16;4990526;28;20284;-82
2023/06/20 12:39:04;;;;;;;8.70;6.30;;;;;;;24.87;63.55;97109.25;5009715;28;20212;-81
2023/06/20 12:41:33;;;;;;;7.90;6.90;;;;;;;24.77;63.26;97089.97;5008703;28;20228;-79
2023/06/20 12:44:02;;;;;;;7.87;6.50;;;;;;;24.94;62.96;97097.84;5009037;28;20751;-78